Time;durP1;ratioP1;P1;durP2;ratioP2;P2;SDS_P1;SDS_P2;PMS_P1;PMS_P2;Temp;Humidity;BMP_temperature;BMP_pressure;BME280_temperature;BME280_humidity;BME280_pressure;Samples;Min_cycle;Max_cycle;Signal;HPM_P1;HPM_P2
2023/04/02 00:02:33;;;;;;;7.53;6.33;;;7.30;99.90;;;;;;4576474;29;20549;-83
2023/04/02 00:28:22;;;;;;;7.20;5.87;;;7.20;99.90;;;;;;4634696;29;20214;-82
2023/04/02 00:48:37;;;;;;;7.67;6.47;;;7.20;99.90;;;;;;4638215;29;20364;-83
2023/04/02 01:18:57;;;;;;;9.00;6.50;;;7.30;99.90;;;;;;4516888;30;21177;-84
2023/04/02 01:39:30;;;;;;;9.37;6.97;;;6.90;99.90;;;;;;4484599;30;20309;-82
2023/04/02 01:43:50;;;;;;;9.53;7.57;;;6.90;99.90;;;;;;4431552;30;20615;-87
2023/04/02 02:04:29;;;;;;;11.90;8.63;;;6.90;99.90;;;;;;4656858;29;20634;-83
2023/04/02 02:35:05;;;;;;;7.50;5.87;;;6.50;99.90;;;;;;4502913;30;20592;-83
2023/04/02 03:00:19;;;;;;;6.80;5.67;;;6.10;99.90;;;;;;4661616;29;20748;-81
2023/04/02 03:45:38;;;;;;;6.67;5.97;;;6.30;99.90;;;;;;4703857;29;20418;-81
2023/04/02 04:16:00;;;;;;;8.80;7.20;;;6.10;99.90;;;;;;4646682;29;20230;-83
2023/04/02 04:41:30;;;;;;;18.17;12.20;;;6.00;99.90;;;;;;4684052;29;20402;-83
2023/04/02 05:02:19;;;;;;;21.43;13.03;;;5.90;99.90;;;;;;4675453;29;20290;-84
2023/04/02 05:22:28;;;;;;;21.53;13.27;;;5.70;99.90;;;;;;4499497;30;20287;-83
2023/04/02 05:47:43;;;;;;;24.63;14.87;;;5.60;99.90;;;;;;4583634;30;20209;-83
2023/04/02 06:43:32;;;;;;;11.77;9.27;;;5.30;99.90;;;;;;5928749;23;20305;-81
2023/04/02 07:13:35;;;;;;;9.30;7.40;;;5.00;99.90;;;;;;5698964;24;20603;-83
2023/04/02 07:34:09;;;;;;;10.83;7.73;;;4.90;99.90;;;;;;5590311;24;20180;-82
2023/04/02 08:14:32;;;;;;;10.37;8.10;;;5.50;99.90;;;;;;5499827;25;20691;-83
2023/04/02 08:45:05;;;;;;;8.53;6.87;;;5.30;99.90;;;;;;5516409;25;20202;-85
2023/04/02 09:51:22;;;;;;;5.10;4.60;;;5.60;99.90;;;;;;5494497;25;20321;-80
2023/04/02 10:16:31;;;;;;;4.40;4.00;;;5.30;99.90;;;;;;5541549;24;20195;-85
2023/04/02 11:52:53;;;;;;;11.17;8.63;;;5.30;99.90;;;;;;5485142;25;20457;-82
2023/04/02 12:23:22;;;;;;;10.73;7.70;;;5.30;99.90;;;;;;5584468;24;20245;-82
2023/04/02 12:48:39;;;;;;;9.40;7.17;;;5.10;99.90;;;;;;5821293;24;20251;-84
2023/04/02 13:24:17;;;;;;;8.30;5.47;;;5.20;99.90;;;;;;5707328;24;20257;-83
2023/04/02 13:59:07;;;;;;;4.60;4.20;;;5.20;99.90;;;;;;5683166;24;20677;-84
2023/04/02 14:25:07;;;;;;;5.83;4.30;;;4.90;99.90;;;;;;5746548;24;20237;-83
2023/04/02 14:55:36;;;;;;;6.20;4.67;;;4.70;99.90;;;;;;5768048;24;20590;-82
2023/04/02 15:25:39;;;;;;;5.30;4.30;;;4.00;99.90;;;;;;5646220;25;20225;-89
2023/04/02 15:55:47;;;;;;;6.30;5.23;;;3.60;99.90;;;;;;5754752;24;21054;-83
2023/04/02 16:16:31;;;;;;;8.13;5.90;;;3.50;99.90;;;;;;5734407;24;20881;-82
2023/04/02 16:46:27;;;;;;;8.03;6.13;;;3.40;99.90;;;;;;5711121;24;20420;-85
2023/04/02 17:07:27;;;;;;;10.10;6.60;;;3.20;99.90;;;;;;5543058;25;20230;-87
2023/04/02 17:32:30;;;;;;;7.70;6.00;;;3.30;99.90;;;;;;5537461;25;21205;-83
2023/04/02 18:03:00;;;;;;;7.40;5.87;;;3.70;99.90;;;;;;5681935;24;20699;-84
2023/04/02 19:28:51;;;;;;;11.97;9.10;;;4.00;99.90;;;;;;5893686;24;20585;-85
2023/04/02 19:54:30;;;;;;;6.10;4.43;;;4.20;99.90;;;;;;5857122;24;20190;-88
2023/04/02 20:55:38;;;;;;;3.47;2.10;;;4.40;93.60;;;;;;5692058;24;20227;-83
2023/04/02 21:25:38;;;;;;;2.33;1.97;;;4.60;87.20;;;;;;5505141;25;20616;-87
2023/04/02 22:26:58;;;;;;;3.30;1.80;;;4.00;83.40;;;;;;5792842;24;20228;-83
2023/04/02 23:37:12;;;;;;;2.83;1.90;;;3.10;82.50;;;;;;5870443;23;20476;-85
